createdAt,value
2022-08-14T00:02:22.251Z,22.97
2022-08-14T00:04:51.241Z,22.90
2022-08-14T00:07:18.277Z,22.94
2022-08-14T00:10:02.269Z,22.87
2022-08-14T00:12:53.260Z,22.85
2022-08-14T00:15:37.364Z,22.77
2022-08-14T00:18:14.637Z,22.77
2022-08-14T00:20:58.859Z,22.67
2022-08-14T00:23:25.981Z,22.60
2022-08-14T00:26:05.639Z,22.59
2022-08-14T00:28:35.279Z,22.52
2022-08-14T00:31:02.723Z,22.36
2022-08-14T00:33:51.038Z,22.35
2022-08-14T00:36:48.292Z,22.37
2022-08-14T00:39:04.582Z,22.29
2022-08-14T00:41:34.019Z,22.28
2022-08-14T00:44:01.462Z,22.23
2022-08-14T00:46:33.158Z,22.16
2022-08-14T00:49:00.834Z,22.14
2022-08-14T00:51:37.642Z,22.21
2022-08-14T00:54:20.858Z,22.17
2022-08-14T00:56:55.097Z,22.10
2022-08-14T00:59:25.221Z,22.09
2022-08-14T01:01:54.519Z,21.98
2022-08-14T01:04:52.288Z,21.89
2022-08-14T01:07:10.244Z,21.75
2022-08-14T01:09:37.627Z,21.59
2022-08-14T01:12:06.537Z,21.46
2022-08-14T01:14:35.738Z,21.34
2022-08-14T01:17:11.341Z,21.21
2022-08-14T01:19:57.085Z,21.16
2022-08-14T01:22:26.951Z,21.05
2022-08-14T01:24:57.381Z,20.94
2022-08-14T01:27:25.893Z,20.85
2022-08-14T01:30:01.451Z,20.83
2022-08-14T01:32:45.273Z,20.78
2022-08-14T01:36:03.235Z,20.63
2022-08-14T01:38:05.762Z,20.54
2022-08-14T01:40:36.919Z,20.47
2022-08-14T01:43:14.585Z,20.43
2022-08-14T01:45:48.969Z,20.43
2022-08-14T01:48:16.156Z,20.43
2022-08-14T01:50:47.790Z,20.46
2022-08-14T01:53:15.488Z,20.56
2022-08-14T01:55:42.652Z,20.67
2022-08-14T01:58:28.547Z,20.73
2022-08-14T02:00:57.871Z,20.63
2022-08-14T02:03:29.992Z,20.77
2022-08-14T02:06:03.875Z,20.91
2022-08-14T02:08:52.921Z,20.88
2022-08-14T02:11:23.968Z,20.97
2022-08-14T02:14:14.143Z,21.06
2022-08-14T02:16:48.204Z,20.93
2022-08-14T02:19:19.017Z,20.97
2022-08-14T02:21:50.602Z,20.93
2022-08-14T02:24:39.068Z,20.83
2022-08-14T02:28:24.819Z,20.76
2022-08-14T02:30:01.126Z,21.04
2022-08-14T02:32:36.728Z,21.08
2022-08-14T02:35:17.762Z,21.06
2022-08-14T02:37:49.816Z,21.06
2022-08-14T02:40:19.779Z,20.83
2022-08-14T02:42:54.223Z,20.78
2022-08-14T02:45:22.301Z,20.66
2022-08-14T02:47:53.744Z,20.65
2022-08-14T02:50:26.993Z,20.65
2022-08-14T02:52:57.368Z,21.15
2022-08-14T02:55:43.722Z,21.00
2022-08-14T02:58:10.687Z,20.84
2022-08-14T03:00:49.534Z,21.03
2022-08-14T03:03:17.276Z,20.89
2022-08-14T03:05:44.243Z,20.93
2022-08-14T03:08:15.891Z,20.80
2022-08-14T03:10:48.916Z,20.76
2022-08-14T03:13:19.313Z,20.76
2022-08-14T03:15:55.489Z,20.67
2022-08-14T03:18:31.511Z,20.80
2022-08-14T03:21:05.963Z,20.80
2022-08-14T03:23:38.597Z,20.72
2022-08-14T03:26:18.222Z,20.53
2022-08-14T03:28:56.737Z,20.53
2022-08-14T03:31:28.511Z,20.55
2022-08-14T03:34:00.113Z,20.52
2022-08-14T03:39:09.431Z,20.39
2022-08-14T03:39:22.533Z,20.55
2022-08-14T03:41:53.761Z,20.61
2022-08-14T03:45:25.240Z,20.50
2022-08-14T03:47:08.116Z,20.42
2022-08-14T03:49:40.394Z,20.49
2022-08-14T03:52:38.368Z,20.55
2022-08-14T03:54:59.221Z,20.75
2022-08-14T03:57:26.374Z,20.67
2022-08-14T03:59:53.501Z,20.76
2022-08-14T04:02:32.600Z,20.79
2022-08-14T04:05:12.220Z,20.87
2022-08-14T04:07:41.477Z,20.93
2022-08-14T04:10:17.528Z,20.73
2022-08-14T04:12:53.372Z,20.88
2022-08-14T04:15:23.597Z,20.83
2022-08-14T04:17:50.353Z,20.76
2022-08-14T04:20:25.808Z,20.98
2022-08-14T04:22:55.553Z,20.95
2022-08-14T04:25:22.821Z,20.81
2022-08-14T04:28:03.387Z,20.88
2022-08-14T04:30:32.836Z,20.98
2022-08-14T04:33:06.386Z,21.02
2022-08-14T04:35:55.395Z,21.13
2022-08-14T04:38:42.270Z,21.17
2022-08-14T04:41:30.236Z,21.16
2022-08-14T04:43:58.017Z,21.20
2022-08-14T04:46:56.851Z,21.11
2022-08-14T04:49:15.276Z,21.31
2022-08-14T04:51:46.884Z,21.27
2022-08-14T04:54:28.415Z,21.50
2022-08-14T04:56:56.222Z,21.67
2022-08-14T04:59:24.818Z,21.50
2022-08-14T05:01:56.507Z,21.84
2022-08-14T05:04:25.262Z,21.77
2022-08-14T05:06:55.387Z,21.89
2022-08-14T05:09:29.305Z,22.06
2022-08-14T05:11:59.380Z,21.98
2022-08-14T05:15:07.952Z,22.13
2022-08-14T05:17:53.853Z,22.17
2022-08-14T05:21:10.993Z,22.13
2022-08-14T05:23:23.459Z,22.16
2022-08-14T05:25:54.794Z,22.56
2022-08-14T05:28:24.151Z,22.52
2022-08-14T05:30:56.554Z,22.51
2022-08-14T05:33:30.189Z,22.68
2022-08-14T05:36:02.457Z,22.62
2022-08-14T05:38:35.266Z,22.64
2022-08-14T05:41:06.389Z,22.66
2022-08-14T05:43:41.285Z,22.55
2022-08-14T05:46:15.436Z,22.82
2022-08-14T05:48:43.231Z,22.99
2022-08-14T05:51:10.690Z,22.93
2022-08-14T05:54:26.562Z,22.75
2022-08-14T05:56:54.328Z,22.86
2022-08-14T05:59:36.872Z,22.61
2022-08-14T06:02:10.970Z,22.78
2022-08-14T06:04:39.460Z,22.85
2022-08-14T06:07:09.632Z,22.95
2022-08-14T06:09:40.546Z,23.14
2022-08-14T06:12:09.363Z,23.19
2022-08-14T06:14:37.284Z,23.28
2022-08-14T06:17:05.975Z,23.11
2022-08-14T06:19:32.879Z,23.16
2022-08-14T06:21:59.833Z,23.16
2022-08-14T06:24:30.628Z,23.02
2022-08-14T06:27:04.510Z,23.16
2022-08-14T06:29:34.746Z,23.48
2022-08-14T06:32:36.759Z,24.91
2022-08-14T06:35:02.442Z,26.08
2022-08-14T06:37:45.496Z,26.45
2022-08-14T06:40:16.795Z,27.13
2022-08-14T06:42:57.166Z,26.96
2022-08-14T06:45:27.648Z,27.31
2022-08-14T06:47:54.685Z,27.09
2022-08-14T06:50:27.731Z,27.93
2022-08-14T06:53:00.424Z,28.49
2022-08-14T06:55:28.275Z,27.79
2022-08-14T06:57:59.986Z,27.16
2022-08-14T07:00:31.216Z,27.71
2022-08-14T07:03:19.190Z,27.95
2022-08-14T07:05:55.529Z,28.13
2022-08-14T07:08:31.906Z,28.04
2022-08-14T07:11:04.056Z,27.37
2022-08-14T07:13:31.146Z,27.11
2022-08-14T07:16:00.550Z,26.69
2022-08-14T07:18:30.235Z,26.71
2022-08-14T07:20:58.913Z,26.29
2022-08-14T07:23:31.094Z,25.89
2022-08-14T07:26:02.191Z,25.60
2022-08-14T07:28:35.917Z,25.48
2022-08-14T07:31:11.590Z,25.67
2022-08-14T07:33:50.568Z,25.67
2022-08-14T07:36:26.957Z,25.63
2022-08-14T07:39:11.967Z,26.10
2022-08-14T07:41:39.406Z,26.36
2022-08-14T07:44:29.022Z,26.29
2022-08-14T07:46:58.106Z,25.89
2022-08-14T07:49:25.637Z,25.90
2022-08-14T07:51:52.482Z,25.71
2022-08-14T07:54:23.384Z,25.60
2022-08-14T07:57:11.818Z,25.80
2022-08-14T07:59:43.735Z,25.60
2022-08-14T08:02:17.397Z,25.65
2022-08-14T08:04:49.372Z,25.77
2022-08-14T08:07:16.528Z,25.92
2022-08-14T08:09:51.062Z,25.90
2022-08-14T08:12:22.260Z,26.18
2022-08-14T08:14:56.714Z,26.54
2022-08-14T08:17:34.901Z,26.99
2022-08-14T08:20:12.047Z,26.89
2022-08-14T08:22:40.889Z,27.02
2022-08-14T08:25:13.745Z,27.01
2022-08-14T08:27:44.917Z,27.19
2022-08-14T08:30:12.475Z,26.80
2022-08-14T08:32:43.752Z,26.65
2022-08-14T08:35:18.523Z,26.55
2022-08-14T08:37:45.219Z,26.16
2022-08-14T08:40:36.221Z,26.17
2022-08-14T08:43:23.720Z,26.10
2022-08-14T08:46:18.541Z,26.37
2022-08-14T08:48:52.190Z,26.46
2022-08-14T08:51:34.406Z,26.57
2022-08-14T08:54:04.315Z,26.66
2022-08-14T08:56:40.071Z,26.76
2022-08-14T08:59:20.418Z,26.84
2022-08-14T09:01:59.743Z,26.87
2022-08-14T09:04:30.968Z,26.91
2022-08-14T09:07:09.445Z,26.94
2022-08-14T09:09:54.360Z,27.00
2022-08-14T09:12:26.897Z,26.94
2022-08-14T09:14:54.689Z,27.04
2022-08-14T09:17:25.947Z,26.89
2022-08-14T09:19:53.709Z,26.60
2022-08-14T09:22:34.861Z,26.69
2022-08-14T09:25:07.238Z,26.51
2022-08-14T09:27:35.674Z,26.50
2022-08-14T09:30:30.957Z,26.64
2022-08-14T09:33:08.910Z,26.59
2022-08-14T09:35:57.585Z,26.54
2022-08-14T09:38:47.528Z,26.67
2022-08-14T09:42:20.028Z,26.88
2022-08-14T09:44:46.082Z,26.97
2022-08-14T09:47:17.004Z,26.78
2022-08-14T09:49:52.074Z,27.22
2022-08-14T09:52:33.011Z,27.15
2022-08-14T09:55:02.736Z,27.21
2022-08-14T09:57:31.558Z,27.34
2022-08-14T09:59:58.827Z,27.31
2022-08-14T10:02:34.463Z,27.46
2022-08-14T10:05:09.778Z,27.33
2022-08-14T10:07:53.846Z,27.35
2022-08-14T10:14:53.466Z,27.95
2022-08-14T10:17:27.579Z,27.67
2022-08-14T10:20:00.145Z,27.70
2022-08-14T10:23:21.765Z,27.83
2022-08-14T10:25:22.515Z,28.38
2022-08-14T10:27:58.492Z,28.53
2022-08-14T10:30:35.031Z,28.95
2022-08-14T10:33:02.353Z,29.09
2022-08-14T10:35:40.811Z,28.73
2022-08-14T10:38:14.854Z,28.86
2022-08-14T10:40:52.195Z,29.44
2022-08-14T10:43:26.460Z,29.59
2022-08-14T10:46:59.235Z,29.33
2022-08-14T10:49:06.522Z,29.45
2022-08-14T10:51:39.896Z,29.29
2022-08-14T10:54:16.328Z,29.37
2022-08-14T10:57:26.652Z,28.81
2022-08-14T10:59:57.927Z,29.18
2022-08-14T11:02:53.996Z,29.42
2022-08-14T11:05:20.598Z,29.13
2022-08-14T11:07:56.876Z,28.57
2022-08-14T11:10:46.498Z,28.37
2022-08-14T11:13:21.374Z,27.93
2022-08-14T11:15:52.697Z,28.15
2022-08-14T11:18:30.204Z,28.14
2022-08-14T11:21:02.026Z,28.32
2022-08-14T11:23:38.201Z,28.15
2022-08-14T11:26:11.429Z,28.08
2022-08-14T11:28:47.543Z,28.15
2022-08-14T11:31:20.192Z,27.94
2022-08-14T11:33:56.870Z,27.99
2022-08-14T11:36:35.391Z,27.83
2022-08-14T11:39:33.457Z,27.77
2022-08-14T11:42:55.201Z,27.91
2022-08-14T11:44:53.775Z,27.83
2022-08-14T11:47:24.722Z,27.69
2022-08-14T11:49:52.018Z,27.87
2022-08-14T11:52:19.370Z,27.94
2022-08-14T11:54:58.449Z,28.17
2022-08-14T11:57:25.689Z,28.15
2022-08-14T12:00:05.330Z,28.27
2022-08-14T12:03:03.037Z,28.40
2022-08-14T12:05:35.938Z,28.05
2022-08-14T12:08:12.128Z,28.29
2022-08-14T12:10:43.533Z,28.37
2022-08-14T12:13:19.087Z,28.36
2022-08-14T12:16:01.074Z,28.35
2022-08-14T12:18:38.577Z,28.38
2022-08-14T12:21:19.384Z,28.54
2022-08-14T12:24:08.931Z,28.42
2022-08-14T12:26:57.800Z,28.51
2022-08-14T12:29:25.650Z,28.34
2022-08-14T12:32:06.636Z,28.23
2022-08-14T12:34:37.083Z,28.40
2022-08-14T12:37:08.882Z,28.22
2022-08-14T12:39:39.811Z,28.30
2022-08-14T12:42:08.013Z,28.60
2022-08-14T12:44:37.578Z,28.60
2022-08-14T12:47:06.275Z,28.66
2022-08-14T12:49:34.201Z,28.55
2022-08-14T12:52:02.942Z,28.40
2022-08-14T12:54:32.088Z,28.37
2022-08-14T12:57:19.394Z,28.09
2022-08-14T12:59:47.570Z,28.29
2022-08-14T13:02:25.662Z,28.32
2022-08-14T13:04:55.751Z,28.13
2022-08-14T13:07:24.165Z,28.40
2022-08-14T13:10:00.528Z,28.36
2022-08-14T13:13:12.082Z,28.42
2022-08-14T13:15:38.161Z,28.34
2022-08-14T13:18:10.594Z,28.44
2022-08-14T13:20:37.816Z,28.39
2022-08-14T13:23:06.167Z,28.42
2022-08-14T13:25:35.375Z,28.64
2022-08-14T13:28:04.304Z,28.56
2022-08-14T13:30:41.454Z,28.61
2022-08-14T13:33:14.775Z,28.72
2022-08-14T13:35:47.589Z,28.63
2022-08-14T13:38:20.784Z,28.75
2022-08-14T13:40:55.952Z,28.66
2022-08-14T13:43:24.794Z,28.49
2022-08-14T13:46:00.290Z,28.35
2022-08-14T13:48:33.431Z,28.29
2022-08-14T13:51:07.923Z,28.38
2022-08-14T13:54:06.939Z,28.20
2022-08-14T13:56:37.595Z,28.24
2022-08-14T13:59:06.380Z,28.27
2022-08-14T14:05:03.594Z,28.10
2022-08-14T14:07:33.763Z,28.18
2022-08-14T14:10:09.692Z,28.21
2022-08-14T14:12:41.406Z,28.00
2022-08-14T14:15:12.312Z,27.83
2022-08-14T14:17:40.199Z,27.78
2022-08-14T14:20:15.246Z,27.95
2022-08-14T14:23:03.417Z,28.03
2022-08-14T14:25:48.666Z,28.04
2022-08-14T14:28:31.738Z,28.09
2022-08-14T14:31:07.006Z,27.85
2022-08-14T14:33:51.089Z,27.97
2022-08-14T14:36:21.719Z,28.04
2022-08-14T14:38:52.707Z,28.04
2022-08-14T14:41:22.481Z,28.15
2022-08-14T14:43:51.651Z,28.08
2022-08-14T14:46:36.348Z,28.00
2022-08-14T14:49:06.731Z,28.01
2022-08-14T14:51:41.101Z,28.10
2022-08-14T14:54:10.387Z,28.07
2022-08-14T14:56:50.220Z,28.11
2022-08-14T14:59:19.894Z,28.20
2022-08-14T15:01:50.907Z,28.21
2022-08-14T15:04:20.688Z,28.29
2022-08-14T15:06:48.309Z,28.17
2022-08-14T15:09:17.698Z,28.24
2022-08-14T15:11:47.109Z,28.02
2022-08-14T15:14:55.589Z,28.07
2022-08-14T15:17:06.469Z,28.07
2022-08-14T15:19:33.387Z,28.11
2022-08-14T15:22:00.332Z,27.88
2022-08-14T15:24:27.376Z,27.99
2022-08-14T15:26:58.484Z,28.08
2022-08-14T15:29:26.120Z,27.98
2022-08-14T15:31:53.983Z,27.99
2022-08-14T15:34:43.025Z,27.80
2022-08-14T15:37:13.127Z,27.65
2022-08-14T15:39:44.803Z,27.71
2022-08-14T15:42:16.357Z,27.80
2022-08-14T15:44:57.768Z,27.67
2022-08-14T15:47:30.027Z,27.53
2022-08-14T15:50:05.812Z,27.49
2022-08-14T15:52:45.270Z,27.29
2022-08-14T15:55:15.335Z,27.20
2022-08-14T15:58:02.255Z,27.09
2022-08-14T16:00:53.157Z,27.04
2022-08-14T16:03:24.997Z,27.00
2022-08-14T16:06:01.317Z,26.99
2022-08-14T16:08:30.122Z,26.90
2022-08-14T16:11:04.687Z,26.99
2022-08-14T16:13:41.812Z,26.91
2022-08-14T16:16:34.472Z,26.95
2022-08-14T16:19:07.535Z,26.94
2022-08-14T16:22:01.659Z,26.98
2022-08-14T16:24:59.905Z,26.92
2022-08-14T16:27:37.145Z,27.00
2022-08-14T16:30:24.591Z,26.81
2022-08-14T16:33:00.908Z,26.77
2022-08-14T16:35:42.526Z,26.83
2022-08-14T16:38:46.418Z,26.83
2022-08-14T16:41:18.093Z,26.70
2022-08-14T16:43:59.448Z,26.71
2022-08-14T16:49:21.316Z,26.45
2022-08-14T16:54:48.293Z,26.32
2022-08-14T17:03:08.417Z,26.22
2022-08-14T17:05:43.431Z,26.16
2022-08-14T17:11:10.984Z,26.12
2022-08-14T17:13:57.760Z,26.08
2022-08-14T17:16:30.982Z,25.91
2022-08-14T17:19:01.636Z,25.82
2022-08-14T17:21:35.399Z,25.73
2022-08-14T17:24:58.318Z,25.80
2022-08-14T17:27:00.153Z,25.81
2022-08-14T17:29:33.920Z,25.80
2022-08-14T17:32:28.356Z,25.78
2022-08-14T17:34:55.237Z,25.82
2022-08-14T17:37:34.301Z,25.84
2022-08-14T17:40:25.873Z,25.82
2022-08-14T17:43:02.135Z,25.63
2022-08-14T17:45:41.170Z,25.45
2022-08-14T17:49:10.772Z,25.56
2022-08-14T17:51:23.354Z,25.47
2022-08-14T17:54:02.269Z,25.55
2022-08-14T17:56:34.153Z,25.54
2022-08-14T17:59:06.202Z,25.45
2022-08-14T18:01:45.749Z,25.54
2022-08-14T18:04:28.781Z,25.45
2022-08-14T18:07:08.760Z,25.33
2022-08-14T18:09:57.334Z,25.19
2022-08-14T18:12:37.201Z,25.16
2022-08-14T18:15:16.646Z,25.12
2022-08-14T18:17:53.240Z,25.11
2022-08-14T18:21:39.796Z,25.01
2022-08-14T18:23:13.656Z,25.00
2022-08-14T18:25:54.441Z,24.84
2022-08-14T18:28:48.523Z,24.87
2022-08-14T18:31:21.557Z,24.81
2022-08-14T18:34:11.847Z,24.79
2022-08-14T18:36:55.389Z,24.68
2022-08-14T18:39:29.611Z,24.76
2022-08-14T18:42:05.409Z,24.62
2022-08-14T18:44:50.699Z,24.54
2022-08-14T18:47:17.516Z,24.40
2022-08-14T18:49:54.334Z,24.45
2022-08-14T18:52:39.245Z,24.38
2022-08-14T18:55:18.439Z,24.30
2022-08-14T18:58:26.562Z,24.32
2022-08-14T19:00:56.016Z,24.09
2022-08-14T19:03:37.516Z,24.13
2022-08-14T19:06:07.155Z,24.20
2022-08-14T19:08:52.489Z,24.17
2022-08-14T19:11:32.134Z,24.08
2022-08-14T19:14:04.768Z,23.99
2022-08-14T19:16:42.897Z,24.04
2022-08-14T19:19:11.933Z,23.99
2022-08-14T19:21:56.081Z,23.86
2022-08-14T19:24:43.947Z,23.92
2022-08-14T19:27:37.551Z,23.76
2022-08-14T19:30:20.081Z,23.81
2022-08-14T19:32:55.945Z,23.79
2022-08-14T19:35:48.795Z,23.76
2022-08-14T19:38:46.384Z,23.76
2022-08-14T19:41:19.478Z,23.74
2022-08-14T19:43:56.727Z,23.77
2022-08-14T19:46:37.784Z,23.67
2022-08-14T19:49:06.760Z,23.66
2022-08-14T19:51:50.953Z,23.50
2022-08-14T19:54:18.398Z,23.42
2022-08-14T19:56:46.748Z,23.59
2022-08-14T19:59:21.595Z,23.49
2022-08-14T20:01:54.109Z,23.61
2022-08-14T20:04:47.644Z,23.47
2022-08-14T20:07:59.693Z,23.41
2022-08-14T20:11:05.638Z,23.36
2022-08-14T20:13:32.277Z,23.33
2022-08-14T20:16:11.789Z,23.36
2022-08-14T20:18:51.796Z,23.34
2022-08-14T20:21:21.383Z,23.19
2022-08-14T20:23:49.943Z,23.25
2022-08-14T20:26:32.031Z,23.20
2022-08-14T20:29:04.938Z,23.11
2022-08-14T20:31:36.911Z,23.09
2022-08-14T20:34:16.029Z,23.01
2022-08-14T20:37:16.400Z,22.98
2022-08-14T20:39:54.626Z,22.98
2022-08-14T20:42:43.890Z,22.98
2022-08-14T20:45:24.819Z,22.92
2022-08-14T20:48:01.008Z,22.82
2022-08-14T20:50:29.886Z,22.86
2022-08-14T20:53:06.005Z,22.92
2022-08-14T20:55:41.501Z,22.82
2022-08-14T20:58:43.127Z,22.81
2022-08-14T21:01:14.037Z,22.75
2022-08-14T21:03:56.311Z,22.75
2022-08-14T21:07:22.014Z,22.76
2022-08-14T21:09:43.952Z,22.50
2022-08-14T21:12:34.745Z,22.37
2022-08-14T21:14:59.987Z,22.48
2022-08-14T21:17:27.633Z,22.38
2022-08-14T21:19:54.498Z,22.38
2022-08-14T21:22:21.447Z,22.36
2022-08-14T21:24:48.437Z,22.32
2022-08-14T21:27:20.311Z,22.26
2022-08-14T21:29:55.744Z,22.22
2022-08-14T21:32:36.525Z,22.05
2022-08-14T21:35:17.096Z,22.04
2022-08-14T21:37:46.005Z,22.09
2022-08-14T21:40:29.673Z,21.96
2022-08-14T21:43:04.934Z,21.90
2022-08-14T21:45:35.796Z,21.99
2022-08-14T21:48:10.689Z,21.81
2022-08-14T21:51:00.845Z,21.80
2022-08-14T21:53:31.124Z,21.81
2022-08-14T21:55:58.518Z,21.79
2022-08-14T21:58:52.899Z,21.66
2022-08-14T22:01:17.306Z,21.75
2022-08-14T22:03:46.884Z,21.68
2022-08-14T22:06:28.785Z,21.71
2022-08-14T22:08:58.168Z,21.68
2022-08-14T22:11:25.939Z,21.60
2022-08-14T22:13:56.141Z,21.60
2022-08-14T22:17:01.729Z,21.57
2022-08-14T22:19:19.545Z,21.43
2022-08-14T22:21:48.974Z,21.58
2022-08-14T22:24:37.675Z,21.41
2022-08-14T22:27:06.924Z,21.45
2022-08-14T22:29:34.396Z,21.58
2022-08-14T22:32:01.873Z,21.41
2022-08-14T22:34:33.865Z,21.38
2022-08-14T22:37:01.590Z,21.24
2022-08-14T22:40:17.599Z,21.10
2022-08-14T22:42:22.575Z,21.18
2022-08-14T22:44:51.550Z,20.97
2022-08-14T22:47:24.797Z,21.00
2022-08-14T22:50:29.345Z,20.93
2022-08-14T22:52:39.511Z,20.87
2022-08-14T22:55:07.509Z,20.82
2022-08-14T22:57:41.773Z,20.97
2022-08-14T23:00:25.484Z,20.97
2022-08-14T23:03:00.458Z,20.84
2022-08-14T23:05:39.162Z,20.78
2022-08-14T23:08:58.527Z,20.82
2022-08-14T23:11:06.368Z,20.68
2022-08-14T23:13:33.256Z,20.60
2022-08-14T23:16:00.405Z,20.57
2022-08-14T23:18:29.464Z,20.56
2022-08-14T23:20:57.428Z,20.48
2022-08-14T23:23:24.398Z,20.39
2022-08-14T23:25:58.267Z,20.74
2022-08-14T23:28:33.865Z,20.61
2022-08-14T23:31:34.467Z,20.43
2022-08-14T23:34:08.917Z,20.44
2022-08-14T23:36:53.522Z,20.41
2022-08-14T23:39:31.441Z,20.34
2022-08-14T23:42:06.323Z,20.25
2022-08-14T23:44:37.780Z,20.23
2022-08-14T23:47:11.958Z,20.18
2022-08-14T23:50:00.844Z,20.42
2022-08-14T23:52:50.841Z,20.31
2022-08-14T23:55:17.083Z,20.29
2022-08-14T23:57:58.313Z,20.24
